sensor_id;sensor_type;location;lat;lon;timestamp;temperature;humidity
2945;DHT22;1482;51.398;7.128;2024-01-25T00:00:17;9.00;99.90
2945;DHT22;1482;51.398;7.128;2024-01-25T00:02:43;9.00;99.90
2945;DHT22;1482;51.398;7.128;2024-01-25T00:05:08;9.00;99.90
2945;DHT22;1482;51.398;7.128;2024-01-25T00:07:34;9.00;99.90
2945;DHT22;1482;51.398;7.128;2024-01-25T00:09:59;9.00;99.90
2945;DHT22;1482;51.398;7.128;2024-01-25T00:12:25;9.10;99.90
2945;DHT22;1482;51.398;7.128;2024-01-25T00:14:51;9.10;99.90
2945;DHT22;1482;51.398;7.128;2024-01-25T00:17:18;9.00;99.90
2945;DHT22;1482;51.398;7.128;2024-01-25T00:19:43;9.10;99.90
2945;DHT22;1482;51.398;7.128;2024-01-25T00:22:09;9.10;99.90
2945;DHT22;1482;51.398;7.128;2024-01-25T00:24:34;9.00;99.90
2945;DHT22;1482;51.398;7.128;2024-01-25T00:27:02;9.10;99.90
2945;DHT22;1482;51.398;7.128;2024-01-25T00:29:29;9.10;99.90
2945;DHT22;1482;51.398;7.128;2024-01-25T00:31:55;9.00;99.90
2945;DHT22;1482;51.398;7.128;2024-01-25T00:34:22;9.00;99.90
2945;DHT22;1482;51.398;7.128;2024-01-25T00:36:47;9.00;99.90
2945;DHT22;1482;51.398;7.128;2024-01-25T00:39:13;9.00;99.90
2945;DHT22;1482;51.398;7.128;2024-01-25T00:41:40;9.00;99.90
2945;DHT22;1482;51.398;7.128;2024-01-25T00:44:08;9.00;99.90
2945;DHT22;1482;51.398;7.128;2024-01-25T00:46:34;9.00;99.90
2945;DHT22;1482;51.398;7.128;2024-01-25T00:49:00;9.00;99.90
2945;DHT22;1482;51.398;7.128;2024-01-25T00:51:26;8.90;99.90
2945;DHT22;1482;51.398;7.128;2024-01-25T00:53:52;9.00;99.90
2945;DHT22;1482;51.398;7.128;2024-01-25T00:56:18;9.00;99.90
2945;DHT22;1482;51.398;7.128;2024-01-25T00:58:43;9.00;99.90
2945;DHT22;1482;51.398;7.128;2024-01-25T01:01:09;9.00;99.90
2945;DHT22;1482;51.398;7.128;2024-01-25T01:03:36;9.00;99.90
2945;DHT22;1482;51.398;7.128;2024-01-25T01:06:01;8.90;99.90
2945;DHT22;1482;51.398;7.128;2024-01-25T01:08:28;8.90;99.90
2945;DHT22;1482;51.398;7.128;2024-01-25T01:10:53;8.90;99.90
2945;DHT22;1482;51.398;7.128;2024-01-25T01:13:19;8.90;99.90
2945;DHT22;1482;51.398;7.128;2024-01-25T01:15:44;8.90;99.90
2945;DHT22;1482;51.398;7.128;2024-01-25T01:18:10;8.90;99.90
2945;DHT22;1482;51.398;7.128;2024-01-25T01:20:35;8.80;99.90
2945;DHT22;1482;51.398;7.128;2024-01-25T01:23:01;8.80;99.90
2945;DHT22;1482;51.398;7.128;2024-01-25T01:25:26;8.70;99.90
2945;DHT22;1482;51.398;7.128;2024-01-25T01:27:52;8.60;99.90
2945;DHT22;1482;51.398;7.128;2024-01-25T01:30:18;8.60;99.90
2945;DHT22;1482;51.398;7.128;2024-01-25T01:32:43;8.50;99.90
2945;DHT22;1482;51.398;7.128;2024-01-25T01:35:09;8.50;99.90
2945;DHT22;1482;51.398;7.128;2024-01-25T01:37:34;8.50;99.90
2945;DHT22;1482;51.398;7.128;2024-01-25T01:40:00;8.40;99.90
2945;DHT22;1482;51.398;7.128;2024-01-25T01:42:27;8.30;99.90
2945;DHT22;1482;51.398;7.128;2024-01-25T01:44:52;8.30;99.90
2945;DHT22;1482;51.398;7.128;2024-01-25T01:47:18;8.40;99.90
2945;DHT22;1482;51.398;7.128;2024-01-25T01:49:44;8.30;99.90
2945;DHT22;1482;51.398;7.128;2024-01-25T01:52:11;8.30;99.90
2945;DHT22;1482;51.398;7.128;2024-01-25T01:54:37;8.30;99.90
2945;DHT22;1482;51.398;7.128;2024-01-25T01:57:03;8.40;99.90
2945;DHT22;1482;51.398;7.128;2024-01-25T01:59:29;8.30;99.90
2945;DHT22;1482;51.398;7.128;2024-01-25T02:01:55;8.40;99.90
2945;DHT22;1482;51.398;7.128;2024-01-25T02:04:20;8.40;99.90
2945;DHT22;1482;51.398;7.128;2024-01-25T02:06:46;8.40;99.90
2945;DHT22;1482;51.398;7.128;2024-01-25T02:09:12;8.40;99.90
2945;DHT22;1482;51.398;7.128;2024-01-25T02:11:38;8.40;99.90
2945;DHT22;1482;51.398;7.128;2024-01-25T02:14:03;8.50;99.90
2945;DHT22;1482;51.398;7.128;2024-01-25T02:16:29;8.50;99.90
2945;DHT22;1482;51.398;7.128;2024-01-25T02:18:55;8.50;99.90
2945;DHT22;1482;51.398;7.128;2024-01-25T02:21:23;8.50;99.90
2945;DHT22;1482;51.398;7.128;2024-01-25T02:23:49;8.50;99.90
2945;DHT22;1482;51.398;7.128;2024-01-25T02:26:15;8.50;99.90
2945;DHT22;1482;51.398;7.128;2024-01-25T02:28:40;8.50;99.90
2945;DHT22;1482;51.398;7.128;2024-01-25T02:31:06;8.50;99.90
2945;DHT22;1482;51.398;7.128;2024-01-25T02:33:32;8.50;99.90
2945;DHT22;1482;51.398;7.128;2024-01-25T02:35:57;8.60;99.90
2945;DHT22;1482;51.398;7.128;2024-01-25T02:38:23;8.60;99.90
2945;DHT22;1482;51.398;7.128;2024-01-25T02:40:49;8.60;99.90
2945;DHT22;1482;51.398;7.128;2024-01-25T02:43:14;8.60;99.90
2945;DHT22;1482;51.398;7.128;2024-01-25T02:45:40;8.50;99.90
2945;DHT22;1482;51.398;7.128;2024-01-25T02:48:06;8.50;99.90
2945;DHT22;1482;51.398;7.128;2024-01-25T02:50:31;8.60;99.90
2945;DHT22;1482;51.398;7.128;2024-01-25T02:52:58;8.50;99.90
2945;DHT22;1482;51.398;7.128;2024-01-25T02:55:23;8.50;99.90
2945;DHT22;1482;51.398;7.128;2024-01-25T02:57:49;8.60;99.90
2945;DHT22;1482;51.398;7.128;2024-01-25T03:00:15;8.50;99.90
2945;DHT22;1482;51.398;7.128;2024-01-25T03:02:40;8.50;99.90
2945;DHT22;1482;51.398;7.128;2024-01-25T03:05:06;8.40;99.90
2945;DHT22;1482;51.398;7.128;2024-01-25T03:07:31;8.30;99.90
2945;DHT22;1482;51.398;7.128;2024-01-25T03:09:57;8.30;99.90
2945;DHT22;1482;51.398;7.128;2024-01-25T03:12:23;8.40;99.90
2945;DHT22;1482;51.398;7.128;2024-01-25T03:14:48;8.30;99.90
2945;DHT22;1482;51.398;7.128;2024-01-25T03:17:14;8.30;99.90
2945;DHT22;1482;51.398;7.128;2024-01-25T03:19:40;8.30;99.90
2945;DHT22;1482;51.398;7.128;2024-01-25T03:22:05;8.30;99.90
2945;DHT22;1482;51.398;7.128;2024-01-25T03:24:31;8.20;99.90
2945;DHT22;1482;51.398;7.128;2024-01-25T03:26:56;8.20;99.90
2945;DHT22;1482;51.398;7.128;2024-01-25T03:29:22;8.20;99.90
2945;DHT22;1482;51.398;7.128;2024-01-25T03:31:47;8.10;99.90
2945;DHT22;1482;51.398;7.128;2024-01-25T03:34:16;8.10;99.90
2945;DHT22;1482;51.398;7.128;2024-01-25T03:36:41;8.10;99.90
2945;DHT22;1482;51.398;7.128;2024-01-25T03:39:07;8.10;99.90
2945;DHT22;1482;51.398;7.128;2024-01-25T03:41:36;8.10;99.90
2945;DHT22;1482;51.398;7.128;2024-01-25T03:44:02;8.10;99.90
2945;DHT22;1482;51.398;7.128;2024-01-25T03:46:31;8.00;99.90
2945;DHT22;1482;51.398;7.128;2024-01-25T03:48:58;8.00;99.90
2945;DHT22;1482;51.398;7.128;2024-01-25T03:51:27;8.00;99.90
2945;DHT22;1482;51.398;7.128;2024-01-25T03:53:56;7.90;99.90
2945;DHT22;1482;51.398;7.128;2024-01-25T03:56:23;7.90;99.90
2945;DHT22;1482;51.398;7.128;2024-01-25T03:58:53;7.90;99.90
2945;DHT22;1482;51.398;7.128;2024-01-25T04:01:18;7.70;99.90
2945;DHT22;1482;51.398;7.128;2024-01-25T04:03:47;7.70;99.90
2945;DHT22;1482;51.398;7.128;2024-01-25T04:06:19;7.70;99.90
2945;DHT22;1482;51.398;7.128;2024-01-25T04:08:45;7.60;99.90
2945;DHT22;1482;51.398;7.128;2024-01-25T04:11:10;7.60;99.90
2945;DHT22;1482;51.398;7.128;2024-01-25T04:13:36;7.50;99.90
2945;DHT22;1482;51.398;7.128;2024-01-25T04:16:01;7.40;99.90
2945;DHT22;1482;51.398;7.128;2024-01-25T04:18:27;7.40;99.90
2945;DHT22;1482;51.398;7.128;2024-01-25T04:20:53;7.40;99.90
2945;DHT22;1482;51.398;7.128;2024-01-25T04:23:18;7.30;99.90
2945;DHT22;1482;51.398;7.128;2024-01-25T04:25:44;7.30;99.90
2945;DHT22;1482;51.398;7.128;2024-01-25T04:28:09;7.20;99.90
2945;DHT22;1482;51.398;7.128;2024-01-25T04:30:35;7.20;99.90
2945;DHT22;1482;51.398;7.128;2024-01-25T04:33:01;7.10;99.90
2945;DHT22;1482;51.398;7.128;2024-01-25T04:35:27;7.10;99.90
2945;DHT22;1482;51.398;7.128;2024-01-25T04:37:52;7.10;99.90
2945;DHT22;1482;51.398;7.128;2024-01-25T04:40:18;7.00;99.90
2945;DHT22;1482;51.398;7.128;2024-01-25T04:42:44;6.90;99.90
2945;DHT22;1482;51.398;7.128;2024-01-25T04:45:10;6.90;99.90
2945;DHT22;1482;51.398;7.128;2024-01-25T04:47:37;6.90;99.90
2945;DHT22;1482;51.398;7.128;2024-01-25T04:50:03;6.80;99.90
2945;DHT22;1482;51.398;7.128;2024-01-25T04:52:29;6.80;99.90
2945;DHT22;1482;51.398;7.128;2024-01-25T04:54:55;6.80;99.90
2945;DHT22;1482;51.398;7.128;2024-01-25T04:57:20;6.80;99.90
2945;DHT22;1482;51.398;7.128;2024-01-25T04:59:46;6.70;99.90
2945;DHT22;1482;51.398;7.128;2024-01-25T05:02:11;6.70;99.90
2945;DHT22;1482;51.398;7.128;2024-01-25T05:04:37;6.70;1.00
2945;DHT22;1482;51.398;7.128;2024-01-25T05:07:02;6.70;99.90
2945;DHT22;1482;51.398;7.128;2024-01-25T05:09:28;6.60;99.90
2945;DHT22;1482;51.398;7.128;2024-01-25T05:11:53;6.60;1.00
2945;DHT22;1482;51.398;7.128;2024-01-25T05:14:23;6.60;1.00
2945;DHT22;1482;51.398;7.128;2024-01-25T05:16:49;6.50;1.00
2945;DHT22;1482;51.398;7.128;2024-01-25T05:19:14;6.50;1.00
2945;DHT22;1482;51.398;7.128;2024-01-25T05:21:40;6.50;1.00
2945;DHT22;1482;51.398;7.128;2024-01-25T05:24:05;6.50;1.00
2945;DHT22;1482;51.398;7.128;2024-01-25T05:26:33;6.50;1.00
2945;DHT22;1482;51.398;7.128;2024-01-25T05:28:58;6.40;1.00
2945;DHT22;1482;51.398;7.128;2024-01-25T05:31:24;6.40;1.00
2945;DHT22;1482;51.398;7.128;2024-01-25T05:33:49;6.40;1.00
2945;DHT22;1482;51.398;7.128;2024-01-25T05:36:15;6.40;1.00
2945;DHT22;1482;51.398;7.128;2024-01-25T05:38:40;6.40;1.00
2945;DHT22;1482;51.398;7.128;2024-01-25T05:41:06;6.40;1.00
2945;DHT22;1482;51.398;7.128;2024-01-25T05:43:32;6.40;1.00
2945;DHT22;1482;51.398;7.128;2024-01-25T05:45:58;6.40;1.00
2945;DHT22;1482;51.398;7.128;2024-01-25T05:48:24;6.30;1.00
2945;DHT22;1482;51.398;7.128;2024-01-25T05:50:49;6.30;1.00
2945;DHT22;1482;51.398;7.128;2024-01-25T05:53:15;6.30;1.00
2945;DHT22;1482;51.398;7.128;2024-01-25T05:55:41;6.30;1.00
2945;DHT22;1482;51.398;7.128;2024-01-25T05:58:07;6.30;1.00
2945;DHT22;1482;51.398;7.128;2024-01-25T06:00:33;6.20;1.00
2945;DHT22;1482;51.398;7.128;2024-01-25T06:02:59;6.20;1.00
2945;DHT22;1482;51.398;7.128;2024-01-25T06:05:24;6.20;1.00
2945;DHT22;1482;51.398;7.128;2024-01-25T06:07:50;6.20;1.00
2945;DHT22;1482;51.398;7.128;2024-01-25T06:10:15;6.20;1.00
2945;DHT22;1482;51.398;7.128;2024-01-25T06:12:41;6.10;1.00
2945;DHT22;1482;51.398;7.128;2024-01-25T06:15:07;6.10;1.00
2945;DHT22;1482;51.398;7.128;2024-01-25T06:17:33;6.10;1.00
2945;DHT22;1482;51.398;7.128;2024-01-25T06:19:58;6.10;1.00
2945;DHT22;1482;51.398;7.128;2024-01-25T06:22:24;6.10;1.00
2945;DHT22;1482;51.398;7.128;2024-01-25T06:24:49;6.00;1.00
2945;DHT22;1482;51.398;7.128;2024-01-25T06:27:15;6.00;1.00
2945;DHT22;1482;51.398;7.128;2024-01-25T06:29:40;6.10;1.00
2945;DHT22;1482;51.398;7.128;2024-01-25T06:32:06;6.00;1.00
2945;DHT22;1482;51.398;7.128;2024-01-25T06:34:32;6.00;1.00
2945;DHT22;1482;51.398;7.128;2024-01-25T06:36:57;6.00;1.00
2945;DHT22;1482;51.398;7.128;2024-01-25T06:39:23;6.00;1.00
2945;DHT22;1482;51.398;7.128;2024-01-25T06:41:48;5.90;1.00
2945;DHT22;1482;51.398;7.128;2024-01-25T06:44:14;5.90;1.00
2945;DHT22;1482;51.398;7.128;2024-01-25T06:46:39;5.90;1.00
2945;DHT22;1482;51.398;7.128;2024-01-25T06:49:05;5.80;1.00
2945;DHT22;1482;51.398;7.128;2024-01-25T06:51:30;5.80;1.00
2945;DHT22;1482;51.398;7.128;2024-01-25T06:53:56;5.80;1.00
2945;DHT22;1482;51.398;7.128;2024-01-25T06:56:21;5.80;1.00
2945;DHT22;1482;51.398;7.128;2024-01-25T06:58:47;5.80;1.00
2945;DHT22;1482;51.398;7.128;2024-01-25T07:01:12;5.80;1.00
2945;DHT22;1482;51.398;7.128;2024-01-25T07:03:38;5.80;17.50
2945;DHT22;1482;51.398;7.128;2024-01-25T07:06:04;5.70;96.40
2945;DHT22;1482;51.398;7.128;2024-01-25T07:08:30;5.70;99.90
2945;DHT22;1482;51.398;7.128;2024-01-25T07:10:55;5.70;99.90
2945;DHT22;1482;51.398;7.128;2024-01-25T07:13:21;5.70;99.90
2945;DHT22;1482;51.398;7.128;2024-01-25T07:15:47;5.80;99.90
2945;DHT22;1482;51.398;7.128;2024-01-25T07:18:13;5.80;99.90
2945;DHT22;1482;51.398;7.128;2024-01-25T07:20:38;5.80;99.90
2945;DHT22;1482;51.398;7.128;2024-01-25T07:23:04;5.90;99.90
2945;DHT22;1482;51.398;7.128;2024-01-25T07:25:29;5.90;99.90
2945;DHT22;1482;51.398;7.128;2024-01-25T07:27:55;6.00;99.90
2945;DHT22;1482;51.398;7.128;2024-01-25T07:30:20;6.00;99.90
2945;DHT22;1482;51.398;7.128;2024-01-25T07:32:46;6.00;99.90
2945;DHT22;1482;51.398;7.128;2024-01-25T07:35:12;6.00;86.00
2945;DHT22;1482;51.398;7.128;2024-01-25T07:37:39;6.10;44.40
2945;DHT22;1482;51.398;7.128;2024-01-25T07:40:06;6.10;3.40
2945;DHT22;1482;51.398;7.128;2024-01-25T07:42:32;6.20;1.00
2945;DHT22;1482;51.398;7.128;2024-01-25T07:44:57;6.20;1.00
2945;DHT22;1482;51.398;7.128;2024-01-25T07:47:23;6.30;1.00
2945;DHT22;1482;51.398;7.128;2024-01-25T07:49:48;6.40;1.00
2945;DHT22;1482;51.398;7.128;2024-01-25T07:52:14;6.50;1.00
2945;DHT22;1482;51.398;7.128;2024-01-25T07:54:39;6.50;1.00
2945;DHT22;1482;51.398;7.128;2024-01-25T07:57:05;6.60;1.00
2945;DHT22;1482;51.398;7.128;2024-01-25T07:59:30;6.70;1.00
2945;DHT22;1482;51.398;7.128;2024-01-25T08:01:56;6.70;1.00
2945;DHT22;1482;51.398;7.128;2024-01-25T08:04:21;6.80;1.00
2945;DHT22;1482;51.398;7.128;2024-01-25T08:06:47;6.90;1.00
2945;DHT22;1482;51.398;7.128;2024-01-25T08:09:12;7.10;1.00
2945;DHT22;1482;51.398;7.128;2024-01-25T08:11:38;7.20;99.90
2945;DHT22;1482;51.398;7.128;2024-01-25T08:14:04;7.30;99.90
2945;DHT22;1482;51.398;7.128;2024-01-25T08:16:30;7.40;99.90
2945;DHT22;1482;51.398;7.128;2024-01-25T08:18:56;7.70;99.90
2945;DHT22;1482;51.398;7.128;2024-01-25T08:21:21;7.80;99.90
2945;DHT22;1482;51.398;7.128;2024-01-25T08:23:47;8.00;99.90
2945;DHT22;1482;51.398;7.128;2024-01-25T08:26:13;8.20;99.90
2945;DHT22;1482;51.398;7.128;2024-01-25T08:28:40;8.40;99.90
2945;DHT22;1482;51.398;7.128;2024-01-25T08:31:06;8.70;99.90
2945;DHT22;1482;51.398;7.128;2024-01-25T08:33:31;8.80;99.90
2945;DHT22;1482;51.398;7.128;2024-01-25T08:35:57;8.90;99.90
2945;DHT22;1482;51.398;7.128;2024-01-25T08:38:22;8.90;99.90
2945;DHT22;1482;51.398;7.128;2024-01-25T08:40:48;8.90;99.90
2945;DHT22;1482;51.398;7.128;2024-01-25T08:43:13;8.90;99.90
2945;DHT22;1482;51.398;7.128;2024-01-25T08:45:39;8.90;99.90
2945;DHT22;1482;51.398;7.128;2024-01-25T08:48:05;8.80;99.90
2945;DHT22;1482;51.398;7.128;2024-01-25T08:50:31;8.80;99.90
2945;DHT22;1482;51.398;7.128;2024-01-25T08:52:56;8.90;99.90
2945;DHT22;1482;51.398;7.128;2024-01-25T08:55:22;9.00;99.90
2945;DHT22;1482;51.398;7.128;2024-01-25T08:57:49;9.10;99.90
2945;DHT22;1482;51.398;7.128;2024-01-25T09:00:15;9.20;99.90
2945;DHT22;1482;51.398;7.128;2024-01-25T09:02:41;9.20;99.90
2945;DHT22;1482;51.398;7.128;2024-01-25T09:05:08;9.20;99.90
2945;DHT22;1482;51.398;7.128;2024-01-25T09:07:36;9.20;99.90
2945;DHT22;1482;51.398;7.128;2024-01-25T09:10:02;9.30;99.90
2945;DHT22;1482;51.398;7.128;2024-01-25T09:12:29;9.40;99.90
2945;DHT22;1482;51.398;7.128;2024-01-25T09:14:55;9.40;99.90
2945;DHT22;1482;51.398;7.128;2024-01-25T09:17:21;9.40;99.90
2945;DHT22;1482;51.398;7.128;2024-01-25T09:19:49;9.50;99.90
2945;DHT22;1482;51.398;7.128;2024-01-25T09:22:16;9.60;99.90
2945;DHT22;1482;51.398;7.128;2024-01-25T09:24:47;9.60;99.90
2945;DHT22;1482;51.398;7.128;2024-01-25T09:27:14;9.60;99.90
2945;DHT22;1482;51.398;7.128;2024-01-25T09:29:40;9.70;99.90
2945;DHT22;1482;51.398;7.128;2024-01-25T09:32:07;9.70;99.90
2945;DHT22;1482;51.398;7.128;2024-01-25T09:34:38;9.80;99.90
2945;DHT22;1482;51.398;7.128;2024-01-25T09:37:04;9.70;99.90
2945;DHT22;1482;51.398;7.128;2024-01-25T09:39:31;9.70;99.90
2945;DHT22;1482;51.398;7.128;2024-01-25T09:41:58;9.60;99.90
2945;DHT22;1482;51.398;7.128;2024-01-25T09:44:23;9.70;99.90
2945;DHT22;1482;51.398;7.128;2024-01-25T09:46:50;9.70;99.90
2945;DHT22;1482;51.398;7.128;2024-01-25T09:49:16;9.60;99.90
2945;DHT22;1482;51.398;7.128;2024-01-25T09:51:43;9.50;99.90
2945;DHT22;1482;51.398;7.128;2024-01-25T09:54:09;9.30;99.90
2945;DHT22;1482;51.398;7.128;2024-01-25T09:56:35;9.40;99.90
2945;DHT22;1482;51.398;7.128;2024-01-25T09:59:01;9.30;99.90
2945;DHT22;1482;51.398;7.128;2024-01-25T10:01:27;9.30;99.90
2945;DHT22;1482;51.398;7.128;2024-01-25T10:03:53;9.40;99.90
2945;DHT22;1482;51.398;7.128;2024-01-25T10:06:21;9.40;99.90
2945;DHT22;1482;51.398;7.128;2024-01-25T10:08:47;9.60;99.90
2945;DHT22;1482;51.398;7.128;2024-01-25T10:11:12;9.70;99.90
2945;DHT22;1482;51.398;7.128;2024-01-25T10:13:41;9.70;99.90
2945;DHT22;1482;51.398;7.128;2024-01-25T10:16:10;9.70;99.90
2945;DHT22;1482;51.398;7.128;2024-01-25T10:18:36;9.90;99.90
2945;DHT22;1482;51.398;7.128;2024-01-25T10:21:02;10.00;99.90
2945;DHT22;1482;51.398;7.128;2024-01-25T10:23:28;10.20;99.90
2945;DHT22;1482;51.398;7.128;2024-01-25T10:25:56;10.20;99.90
2945;DHT22;1482;51.398;7.128;2024-01-25T10:28:24;10.30;99.90
2945;DHT22;1482;51.398;7.128;2024-01-25T10:30:56;10.40;99.90
2945;DHT22;1482;51.398;7.128;2024-01-25T10:33:26;10.40;99.90
2945;DHT22;1482;51.398;7.128;2024-01-25T10:35:54;10.40;99.90
2945;DHT22;1482;51.398;7.128;2024-01-25T10:38:21;10.40;99.90
2945;DHT22;1482;51.398;7.128;2024-01-25T10:40:47;10.30;99.90
2945;DHT22;1482;51.398;7.128;2024-01-25T10:43:13;10.20;99.90
2945;DHT22;1482;51.398;7.128;2024-01-25T10:45:39;10.20;99.90
2945;DHT22;1482;51.398;7.128;2024-01-25T10:48:06;10.30;99.90
2945;DHT22;1482;51.398;7.128;2024-01-25T10:50:32;10.20;99.90
2945;DHT22;1482;51.398;7.128;2024-01-25T10:52:58;10.30;99.90
2945;DHT22;1482;51.398;7.128;2024-01-25T10:55:25;10.40;99.90
2945;DHT22;1482;51.398;7.128;2024-01-25T10:57:52;10.50;99.90
2945;DHT22;1482;51.398;7.128;2024-01-25T11:00:21;10.80;99.90
2945;DHT22;1482;51.398;7.128;2024-01-25T11:02:47;10.80;93.90
2945;DHT22;1482;51.398;7.128;2024-01-25T11:05:16;11.00;91.10
2945;DHT22;1482;51.398;7.128;2024-01-25T11:07:50;11.20;86.70
2945;DHT22;1482;51.398;7.128;2024-01-25T11:10:24;11.30;85.00
2945;DHT22;1482;51.398;7.128;2024-01-25T11:12:51;11.50;84.80
2945;DHT22;1482;51.398;7.128;2024-01-25T11:15:38;11.70;75.10
2945;DHT22;1482;51.398;7.128;2024-01-25T11:18:04;11.80;70.30
2945;DHT22;1482;51.398;7.128;2024-01-25T11:20:34;12.00;62.40
2945;DHT22;1482;51.398;7.128;2024-01-25T11:23:04;12.10;54.80
2945;DHT22;1482;51.398;7.128;2024-01-25T11:25:34;12.20;46.70
2945;DHT22;1482;51.398;7.128;2024-01-25T11:28:01;12.40;48.00
2945;DHT22;1482;51.398;7.128;2024-01-25T11:30:29;12.50;45.20
2945;DHT22;1482;51.398;7.128;2024-01-25T11:32:54;12.60;40.00
2945;DHT22;1482;51.398;7.128;2024-01-25T11:35:21;12.70;37.60
2945;DHT22;1482;51.398;7.128;2024-01-25T11:37:47;12.90;36.20
2945;DHT22;1482;51.398;7.128;2024-01-25T11:40:15;12.90;34.40
2945;DHT22;1482;51.398;7.128;2024-01-25T11:42:43;13.00;30.40
2945;DHT22;1482;51.398;7.128;2024-01-25T11:45:12;12.70;25.30
2945;DHT22;1482;51.398;7.128;2024-01-25T11:47:38;12.40;25.10
2945;DHT22;1482;51.398;7.128;2024-01-25T11:50:05;12.40;29.10
2945;DHT22;1482;51.398;7.128;2024-01-25T11:52:32;12.60;30.40
2945;DHT22;1482;51.398;7.128;2024-01-25T11:55:02;12.60;29.40
2945;DHT22;1482;51.398;7.128;2024-01-25T11:57:29;12.60;28.50
2945;DHT22;1482;51.398;7.128;2024-01-25T11:59:55;12.60;25.50
2945;DHT22;1482;51.398;7.128;2024-01-25T12:02:21;12.50;24.20
2945;DHT22;1482;51.398;7.128;2024-01-25T12:04:47;12.60;23.00
2945;DHT22;1482;51.398;7.128;2024-01-25T12:07:13;12.70;23.90
2945;DHT22;1482;51.398;7.128;2024-01-25T12:09:39;12.50;21.40
2945;DHT22;1482;51.398;7.128;2024-01-25T12:12:05;12.20;20.00
2945;DHT22;1482;51.398;7.128;2024-01-25T12:14:30;12.20;21.70
2945;DHT22;1482;51.398;7.128;2024-01-25T12:16:56;12.00;21.90
2945;DHT22;1482;51.398;7.128;2024-01-25T12:19:22;11.80;22.70
2945;DHT22;1482;51.398;7.128;2024-01-25T12:21:47;11.60;23.80
2945;DHT22;1482;51.398;7.128;2024-01-25T12:24:13;11.50;25.70
2945;DHT22;1482;51.398;7.128;2024-01-25T12:26:44;11.40;27.90
2945;DHT22;1482;51.398;7.128;2024-01-25T12:29:09;11.20;26.90
2945;DHT22;1482;51.398;7.128;2024-01-25T12:31:36;11.20;29.20
2945;DHT22;1482;51.398;7.128;2024-01-25T12:34:01;11.20;33.20
2945;DHT22;1482;51.398;7.128;2024-01-25T12:36:27;11.00;34.20
2945;DHT22;1482;51.398;7.128;2024-01-25T12:38:52;10.90;37.90
2945;DHT22;1482;51.398;7.128;2024-01-25T12:41:18;10.90;42.00
2945;DHT22;1482;51.398;7.128;2024-01-25T12:43:43;10.90;44.90
2945;DHT22;1482;51.398;7.128;2024-01-25T12:46:09;10.90;42.70
2945;DHT22;1482;51.398;7.128;2024-01-25T12:48:34;10.90;45.00
2945;DHT22;1482;51.398;7.128;2024-01-25T12:51:01;10.80;47.20
2945;DHT22;1482;51.398;7.128;2024-01-25T12:53:26;10.80;50.80
2945;DHT22;1482;51.398;7.128;2024-01-25T12:55:52;10.80;52.50
2945;DHT22;1482;51.398;7.128;2024-01-25T12:58:18;10.90;49.60
2945;DHT22;1482;51.398;7.128;2024-01-25T13:00:43;10.80;47.50
2945;DHT22;1482;51.398;7.128;2024-01-25T13:03:11;10.70;50.40
2945;DHT22;1482;51.398;7.128;2024-01-25T13:05:36;10.60;54.40
2945;DHT22;1482;51.398;7.128;2024-01-25T13:08:05;10.60;59.00
2945;DHT22;1482;51.398;7.128;2024-01-25T13:10:30;10.60;56.50
2945;DHT22;1482;51.398;7.128;2024-01-25T13:12:57;10.60;59.90
2945;DHT22;1482;51.398;7.128;2024-01-25T13:15:23;10.60;64.50
2945;DHT22;1482;51.398;7.128;2024-01-25T13:17:49;10.60;60.60
2945;DHT22;1482;51.398;7.128;2024-01-25T13:20:14;10.60;60.20
2945;DHT22;1482;51.398;7.128;2024-01-25T13:22:40;10.60;59.00
2945;DHT22;1482;51.398;7.128;2024-01-25T13:25:06;10.70;63.60
2945;DHT22;1482;51.398;7.128;2024-01-25T13:27:32;10.70;62.80
2945;DHT22;1482;51.398;7.128;2024-01-25T13:29:57;10.70;61.40
2945;DHT22;1482;51.398;7.128;2024-01-25T13:32:23;10.60;58.80
2945;DHT22;1482;51.398;7.128;2024-01-25T13:34:49;10.50;61.40
2945;DHT22;1482;51.398;7.128;2024-01-25T13:37:15;10.50;60.30
2945;DHT22;1482;51.398;7.128;2024-01-25T13:39:40;10.60;65.60
2945;DHT22;1482;51.398;7.128;2024-01-25T13:42:06;10.60;63.60
2945;DHT22;1482;51.398;7.128;2024-01-25T13:44:32;10.50;59.60
2945;DHT22;1482;51.398;7.128;2024-01-25T13:46:57;10.50;62.10
2945;DHT22;1482;51.398;7.128;2024-01-25T13:49:24;10.40;65.30
2945;DHT22;1482;51.398;7.128;2024-01-25T13:51:49;10.40;68.00
2945;DHT22;1482;51.398;7.128;2024-01-25T13:54:15;10.50;66.80
2945;DHT22;1482;51.398;7.128;2024-01-25T13:56:40;10.50;68.80
2945;DHT22;1482;51.398;7.128;2024-01-25T13:59:06;10.40;63.50
2945;DHT22;1482;51.398;7.128;2024-01-25T14:01:32;10.40;64.90
2945;DHT22;1482;51.398;7.128;2024-01-25T14:03:57;10.30;67.10
2945;DHT22;1482;51.398;7.128;2024-01-25T14:06:23;10.30;71.00
2945;DHT22;1482;51.398;7.128;2024-01-25T14:08:48;10.30;71.60
2945;DHT22;1482;51.398;7.128;2024-01-25T14:11:15;10.00;73.90
2945;DHT22;1482;51.398;7.128;2024-01-25T14:13:41;10.00;78.00
2945;DHT22;1482;51.398;7.128;2024-01-25T14:16:06;10.00;81.40
2945;DHT22;1482;51.398;7.128;2024-01-25T14:18:39;10.00;81.70
2945;DHT22;1482;51.398;7.128;2024-01-25T14:21:05;10.00;90.40
2945;DHT22;1482;51.398;7.128;2024-01-25T14:23:30;10.00;90.00
2945;DHT22;1482;51.398;7.128;2024-01-25T14:25:56;10.10;86.60
2945;DHT22;1482;51.398;7.128;2024-01-25T14:28:21;10.10;88.90
2945;DHT22;1482;51.398;7.128;2024-01-25T14:30:47;10.00;87.70
2945;DHT22;1482;51.398;7.128;2024-01-25T14:33:14;9.90;91.80
2945;DHT22;1482;51.398;7.128;2024-01-25T14:35:39;9.90;93.90
2945;DHT22;1482;51.398;7.128;2024-01-25T14:38:05;10.00;90.80
2945;DHT22;1482;51.398;7.128;2024-01-25T14:40:30;10.00;91.50
2945;DHT22;1482;51.398;7.128;2024-01-25T14:42:56;10.10;90.20
2945;DHT22;1482;51.398;7.128;2024-01-25T14:45:22;10.20;91.10
2945;DHT22;1482;51.398;7.128;2024-01-25T14:47:48;10.20;90.20
2945;DHT22;1482;51.398;7.128;2024-01-25T14:50:14;10.30;85.30
2945;DHT22;1482;51.398;7.128;2024-01-25T14:52:39;10.20;77.10
2945;DHT22;1482;51.398;7.128;2024-01-25T14:55:05;10.20;80.30
2945;DHT22;1482;51.398;7.128;2024-01-25T14:57:31;10.20;74.80
2945;DHT22;1482;51.398;7.128;2024-01-25T14:59:56;10.10;80.50
2945;DHT22;1482;51.398;7.128;2024-01-25T15:02:22;10.10;82.50
2945;DHT22;1482;51.398;7.128;2024-01-25T15:04:47;10.00;81.70
2945;DHT22;1482;51.398;7.128;2024-01-25T15:07:13;10.00;88.90
2945;DHT22;1482;51.398;7.128;2024-01-25T15:09:40;9.90;90.00
2945;DHT22;1482;51.398;7.128;2024-01-25T15:12:07;9.90;92.30
2945;DHT22;1482;51.398;7.128;2024-01-25T15:14:33;9.90;93.10
2945;DHT22;1482;51.398;7.128;2024-01-25T15:16:58;9.90;93.90
2945;DHT22;1482;51.398;7.128;2024-01-25T15:19:24;9.80;96.60
2945;DHT22;1482;51.398;7.128;2024-01-25T15:21:49;9.80;97.40
2945;DHT22;1482;51.398;7.128;2024-01-25T15:24:15;9.80;98.40
2945;DHT22;1482;51.398;7.128;2024-01-25T15:26:41;9.80;99.90
2945;DHT22;1482;51.398;7.128;2024-01-25T15:29:07;9.80;99.90
2945;DHT22;1482;51.398;7.128;2024-01-25T15:31:33;9.80;99.90
2945;DHT22;1482;51.398;7.128;2024-01-25T15:33:58;9.70;99.90
2945;DHT22;1482;51.398;7.128;2024-01-25T15:36:24;9.80;99.90
2945;DHT22;1482;51.398;7.128;2024-01-25T15:38:49;9.80;99.90
2945;DHT22;1482;51.398;7.128;2024-01-25T15:41:16;9.70;99.90
2945;DHT22;1482;51.398;7.128;2024-01-25T15:43:42;9.70;99.90
2945;DHT22;1482;51.398;7.128;2024-01-25T15:46:07;9.60;99.90
2945;DHT22;1482;51.398;7.128;2024-01-25T15:48:33;9.60;99.90
2945;DHT22;1482;51.398;7.128;2024-01-25T15:50:59;9.60;99.90
2945;DHT22;1482;51.398;7.128;2024-01-25T15:53:25;9.70;99.90
2945;DHT22;1482;51.398;7.128;2024-01-25T15:55:50;9.70;99.90
2945;DHT22;1482;51.398;7.128;2024-01-25T15:58:16;9.80;99.90
2945;DHT22;1482;51.398;7.128;2024-01-25T16:00:45;9.80;99.90
2945;DHT22;1482;51.398;7.128;2024-01-25T16:03:10;9.80;99.90
2945;DHT22;1482;51.398;7.128;2024-01-25T16:05:36;9.70;99.90